sensor_id;sensor_type;location;lat;lon;timestamp;pressure;altitude;pressure_sealevel;temperature
6550;BMP280;15142;48.888;9.134;2023-02-11T00:01:47;100075.47;;;-0.43
6550;BMP280;15142;48.888;9.134;2023-02-11T00:04:15;100080.63;;;-0.44
6550;BMP280;15142;48.888;9.134;2023-02-11T00:06:42;100084.06;;;-0.45
6550;BMP280;15142;48.888;9.134;2023-02-11T00:09:09;100084.06;;;-0.45
6550;BMP280;15142;48.888;9.134;2023-02-11T00:11:38;100084.72;;;-0.43
6550;BMP280;15142;48.888;9.134;2023-02-11T00:14:06;100077.81;;;-0.41
6550;BMP280;15142;48.888;9.134;2023-02-11T00:16:33;100074.38;;;-0.40
6550;BMP280;15142;48.888;9.134;2023-02-11T00:19:00;100070.63;;;-0.37
6550;BMP280;15142;48.888;9.134;2023-02-11T00:21:28;100071.88;;;-0.40
6550;BMP280;15142;48.888;9.134;2023-02-11T00:23:56;100075.59;;;-0.44
6550;BMP280;15142;48.888;9.134;2023-02-11T00:26:27;100074.03;;;-0.45
6550;BMP280;15142;48.888;9.134;2023-02-11T00:28:55;100070.00;;;-0.38
6550;BMP280;15142;48.888;9.134;2023-02-11T00:31:23;100063.69;;;-0.42
6550;BMP280;15142;48.888;9.134;2023-02-11T00:33:50;100062.13;;;-0.43
6550;BMP280;15142;48.888;9.134;2023-02-11T00:36:19;100068.44;;;-0.39
6550;BMP280;15142;48.888;9.134;2023-02-11T00:38:48;100064.66;;;-0.43
6550;BMP280;15142;48.888;9.134;2023-02-11T00:41:16;100057.78;;;-0.41
6550;BMP280;15142;48.888;9.134;2023-02-11T00:43:43;100066.97;;;-0.50
6550;BMP280;15142;48.888;9.134;2023-02-11T00:46:11;100071.47;;;-0.53
6550;BMP280;15142;48.888;9.134;2023-02-11T00:48:38;100076.41;;;-0.61
6550;BMP280;15142;48.888;9.134;2023-02-11T00:51:05;100068.69;;;-0.68
6550;BMP280;15142;48.888;9.134;2023-02-11T00:53:32;100077.56;;;-0.73
6550;BMP280;15142;48.888;9.134;2023-02-11T00:55:59;100078.78;;;-0.77
6550;BMP280;15142;48.888;9.134;2023-02-11T00:58:26;100070.97;;;-0.74
6550;BMP280;15142;48.888;9.134;2023-02-11T01:00:54;100059.66;;;-0.78
6550;BMP280;15142;48.888;9.134;2023-02-11T01:03:22;100062.75;;;-0.84
6550;BMP280;15142;48.888;9.134;2023-02-11T01:05:49;100045.94;;;-0.91
6550;BMP280;15142;48.888;9.134;2023-02-11T01:08:15;100053.47;;;-0.91
6550;BMP280;15142;48.888;9.134;2023-02-11T01:10:42;100043.88;;;-0.96
6550;BMP280;15142;48.888;9.134;2023-02-11T01:13:09;100049.66;;;-0.95
6550;BMP280;15142;48.888;9.134;2023-02-11T01:15:36;100037.28;;;-0.97
6550;BMP280;15142;48.888;9.134;2023-02-11T01:18:03;100039.13;;;-0.99
6550;BMP280;15142;48.888;9.134;2023-02-11T01:20:31;100040.56;;;-0.96
6550;BMP280;15142;48.888;9.134;2023-02-11T01:22:58;100035.84;;;-0.99
6550;BMP280;15142;48.888;9.134;2023-02-11T01:25:25;100032.19;;;-1.05
6550;BMP280;15142;48.888;9.134;2023-02-11T01:27:51;100025.47;;;-1.04
6550;BMP280;15142;48.888;9.134;2023-02-11T01:30:18;100024.41;;;-1.02
6550;BMP280;15142;48.888;9.134;2023-02-11T01:32:46;100027.84;;;-1.03
6550;BMP280;15142;48.888;9.134;2023-02-11T01:35:12;100029.75;;;-0.97
6550;BMP280;15142;48.888;9.134;2023-02-11T01:37:40;100025.06;;;-1.00
6550;BMP280;15142;48.888;9.134;2023-02-11T01:40:12;100031.75;;;-1.00
6550;BMP280;15142;48.888;9.134;2023-02-11T01:42:40;100016.91;;;-1.02
6550;BMP280;15142;48.888;9.134;2023-02-11T01:48:07;100030.13;;;-1.09
6550;BMP280;15142;48.888;9.134;2023-02-11T01:50:34;100031.56;;;-1.07
6550;BMP280;15142;48.888;9.134;2023-02-11T01:53:03;100034.44;;;-1.02
6550;BMP280;15142;48.888;9.134;2023-02-11T01:55:45;100041.38;;;-0.96
6550;BMP280;15142;48.888;9.134;2023-02-11T01:58:30;100020.53;;;-0.96
6550;BMP280;15142;48.888;9.134;2023-02-11T02:00:59;100018.97;;;-0.97
6550;BMP280;15142;48.888;9.134;2023-02-11T02:03:27;100014.53;;;-1.03
6550;BMP280;15142;48.888;9.134;2023-02-11T02:05:59;100020.63;;;-1.06
6550;BMP280;15142;48.888;9.134;2023-02-11T02:08:33;100019.97;;;-1.08
6550;BMP280;15142;48.888;9.134;2023-02-11T02:11:01;100016.81;;;-1.09
6550;BMP280;15142;48.888;9.134;2023-02-11T02:13:30;100005.22;;;-1.10
6550;BMP280;15142;48.888;9.134;2023-02-11T02:15:59;100013.50;;;-1.10
6550;BMP280;15142;48.888;9.134;2023-02-11T02:18:35;100013.94;;;-1.14
6550;BMP280;15142;48.888;9.134;2023-02-11T02:24:50;100007.22;;;-1.14
6550;BMP280;15142;48.888;9.134;2023-02-11T02:27:40;100011.44;;;-1.14
6550;BMP280;15142;48.888;9.134;2023-02-11T02:30:32;100008.03;;;-1.13
6550;BMP280;15142;48.888;9.134;2023-02-11T02:33:13;100003.34;;;-1.09
6550;BMP280;15142;48.888;9.134;2023-02-11T02:35:45;100000.56;;;-1.06
6550;BMP280;15142;48.888;9.134;2023-02-11T02:38:18;100001.22;;;-1.04
6550;BMP280;15142;48.888;9.134;2023-02-11T02:40:49;99988.84;;;-1.05
6550;BMP280;15142;48.888;9.134;2023-02-11T02:43:18;99980.81;;;-1.09
6550;BMP280;15142;48.888;9.134;2023-02-11T02:45:45;99972.97;;;-1.13
6550;BMP280;15142;48.888;9.134;2023-02-11T02:48:24;99963.84;;;-1.14
6550;BMP280;15142;48.888;9.134;2023-02-11T02:50:53;99958.50;;;-1.19
6550;BMP280;15142;48.888;9.134;2023-02-11T02:53:30;99965.00;;;-1.26
6550;BMP280;15142;48.888;9.134;2023-02-11T02:56:02;99964.09;;;-1.25
6550;BMP280;15142;48.888;9.134;2023-02-11T02:58:53;99968.78;;;-1.22
6550;BMP280;15142;48.888;9.134;2023-02-11T03:01:30;99971.03;;;-1.19
6550;BMP280;15142;48.888;9.134;2023-02-11T03:04:05;99959.78;;;-1.15
6550;BMP280;15142;48.888;9.134;2023-02-11T03:06:42;99953.50;;;-1.19
6550;BMP280;15142;48.888;9.134;2023-02-11T03:09:13;99941.38;;;-1.24
6550;BMP280;15142;48.888;9.134;2023-02-11T03:11:41;99945.53;;;-1.32
6550;BMP280;15142;48.888;9.134;2023-02-11T03:14:10;99946.16;;;-1.30
6550;BMP280;15142;48.888;9.134;2023-02-11T03:16:38;99945.91;;;-1.27
6550;BMP280;15142;48.888;9.134;2023-02-11T03:19:10;99944.69;;;-1.23
6550;BMP280;15142;48.888;9.134;2023-02-11T03:21:39;99940.34;;;-1.21
6550;BMP280;15142;48.888;9.134;2023-02-11T03:24:11;99946.31;;;-1.14
6550;BMP280;15142;48.888;9.134;2023-02-11T03:26:43;99953.84;;;-1.14
6550;BMP280;15142;48.888;9.134;2023-02-11T03:29:15;99943.59;;;-1.04
6550;BMP280;15142;48.888;9.134;2023-02-11T03:31:50;99938.16;;;-0.99
6550;BMP280;15142;48.888;9.134;2023-02-11T03:34:23;99941.75;;;-1.02
6550;BMP280;15142;48.888;9.134;2023-02-11T03:36:56;99954.34;;;-0.94
6550;BMP280;15142;48.888;9.134;2023-02-11T03:39:29;99948.88;;;-0.89
6550;BMP280;15142;48.888;9.134;2023-02-11T03:41:59;99946.06;;;-0.86
6550;BMP280;15142;48.888;9.134;2023-02-11T03:44:30;99946.88;;;-0.86
6550;BMP280;15142;48.888;9.134;2023-02-11T03:47:00;99942.91;;;-0.88
6550;BMP280;15142;48.888;9.134;2023-02-11T03:49:29;99946.06;;;-0.86
6550;BMP280;15142;48.888;9.134;2023-02-11T03:51:59;99942.06;;;-0.79
6550;BMP280;15142;48.888;9.134;2023-02-11T03:54:29;99948.03;;;-0.73
6550;BMP280;15142;48.888;9.134;2023-02-11T03:56:57;99946.94;;;-0.70
6550;BMP280;15142;48.888;9.134;2023-02-11T03:59:24;99960.75;;;-0.66
6550;BMP280;15142;48.888;9.134;2023-02-11T04:01:52;99949.81;;;-0.65
6550;BMP280;15142;48.888;9.134;2023-02-11T04:04:18;99960.75;;;-0.66
6550;BMP280;15142;48.888;9.134;2023-02-11T04:06:46;99964.53;;;-0.62
6550;BMP280;15142;48.888;9.134;2023-02-11T04:09:13;99961.13;;;-0.61
6550;BMP280;15142;48.888;9.134;2023-02-11T04:11:40;99966.13;;;-0.61
6550;BMP280;15142;48.888;9.134;2023-02-11T04:14:07;99966.28;;;-0.63
6550;BMP280;15142;48.888;9.134;2023-02-11T04:16:33;99973.78;;;-0.63
6550;BMP280;15142;48.888;9.134;2023-02-11T04:19:00;99967.69;;;-0.60
6550;BMP280;15142;48.888;9.134;2023-02-11T04:21:26;99970.63;;;-0.65
6550;BMP280;15142;48.888;9.134;2023-02-11T04:23:54;99962.47;;;-0.67
6550;BMP280;15142;48.888;9.134;2023-02-11T04:26:21;99973.66;;;-0.61
6550;BMP280;15142;48.888;9.134;2023-02-11T04:28:47;99970.06;;;-0.59
6550;BMP280;15142;48.888;9.134;2023-02-11T04:31:14;99970.84;;;-0.58
6550;BMP280;15142;48.888;9.134;2023-02-11T04:33:41;99969.28;;;-0.59
6550;BMP280;15142;48.888;9.134;2023-02-11T04:36:07;99970.84;;;-0.58
6550;BMP280;15142;48.888;9.134;2023-02-11T04:38:34;99960.66;;;-0.57
6550;BMP280;15142;48.888;9.134;2023-02-11T04:41:02;99964.44;;;-0.53
6550;BMP280;15142;48.888;9.134;2023-02-11T04:43:28;99956.47;;;-0.48
6550;BMP280;15142;48.888;9.134;2023-02-11T04:45:56;99952.59;;;-0.43
6550;BMP280;15142;48.888;9.134;2023-02-11T04:48:23;99955.59;;;-0.39
6550;BMP280;15142;48.888;9.134;2023-02-11T04:50:51;99965.63;;;-0.39
6550;BMP280;15142;48.888;9.134;2023-02-11T04:53:17;99951.50;;;-0.40
6550;BMP280;15142;48.888;9.134;2023-02-11T04:55:44;99952.16;;;-0.38
6550;BMP280;15142;48.888;9.134;2023-02-11T04:58:14;99963.44;;;-0.35
6550;BMP280;15142;48.888;9.134;2023-02-11T05:00:41;99958.16;;;-0.32
6550;BMP280;15142;48.888;9.134;2023-02-11T05:03:08;99966.81;;;-0.26
6550;BMP280;15142;48.888;9.134;2023-02-11T05:05:37;99945.97;;;-0.27
6550;BMP280;15142;48.888;9.134;2023-02-11T05:08:03;99930.13;;;-0.27
6550;BMP280;15142;48.888;9.134;2023-02-11T05:10:30;99919.78;;;-0.24
6550;BMP280;15142;48.888;9.134;2023-02-11T05:12:57;99926.88;;;-0.20
6550;BMP280;15142;48.888;9.134;2023-02-11T05:15:25;99918.13;;;-0.16
6550;BMP280;15142;48.888;9.134;2023-02-11T05:17:52;99900.69;;;-0.17
6550;BMP280;15142;48.888;9.134;2023-02-11T05:20:19;99897.72;;;-0.13
6550;BMP280;15142;48.888;9.134;2023-02-11T05:22:46;99903.53;;;-0.12
6550;BMP280;15142;48.888;9.134;2023-02-11T05:25:12;99896.19;;;-0.14
6550;BMP280;15142;48.888;9.134;2023-02-11T05:27:39;99903.84;;;-0.15
6550;BMP280;15142;48.888;9.134;2023-02-11T05:30:07;99896.81;;;-0.12
6550;BMP280;15142;48.888;9.134;2023-02-11T05:32:35;99881.59;;;-0.10
6550;BMP280;15142;48.888;9.134;2023-02-11T05:35:01;99886.78;;;-0.12
6550;BMP280;15142;48.888;9.134;2023-02-11T05:37:28;99895.56;;;-0.08
6550;BMP280;15142;48.888;9.134;2023-02-11T05:39:55;99892.59;;;-0.03
6550;BMP280;15142;48.888;9.134;2023-02-11T05:42:21;99901.84;;;-0.04
6550;BMP280;15142;48.888;9.134;2023-02-11T05:44:48;99897.13;;;-0.07
6550;BMP280;15142;48.888;9.134;2023-02-11T05:47:14;99895.56;;;-0.08
6550;BMP280;15142;48.888;9.134;2023-02-11T05:49:42;99887.09;;;-0.07
6550;BMP280;15142;48.888;9.134;2023-02-11T05:52:09;99905.00;;;-0.02
6550;BMP280;15142;48.888;9.134;2023-02-11T05:54:35;99907.19;;;0.01
6550;BMP280;15142;48.888;9.134;2023-02-11T05:57:02;99904.34;;;0.04
6550;BMP280;15142;48.888;9.134;2023-02-11T05:59:29;99906.56;;;0.07
6550;BMP280;15142;48.888;9.134;2023-02-11T06:01:55;99917.25;;;0.09
6550;BMP280;15142;48.888;9.134;2023-02-11T06:04:22;99913.94;;;0.08
6550;BMP280;15142;48.888;9.134;2023-02-11T06:06:50;99912.72;;;0.12
6550;BMP280;15142;48.888;9.134;2023-02-11T06:09:17;99917.25;;;0.09
6550;BMP280;15142;48.888;9.134;2023-02-11T06:11:43;99923.81;;;0.10
6550;BMP280;15142;48.888;9.134;2023-02-11T06:14:10;99930.91;;;0.14
6550;BMP280;15142;48.888;9.134;2023-02-11T06:16:37;99925.88;;;0.14
6550;BMP280;15142;48.888;9.134;2023-02-11T06:19:03;99925.09;;;0.14
6550;BMP280;15142;48.888;9.134;2023-02-11T06:21:30;99920.84;;;0.06
6550;BMP280;15142;48.888;9.134;2023-02-11T06:23:58;99922.25;;;0.09
6550;BMP280;15142;48.888;9.134;2023-02-11T06:26:24;99921.47;;;0.08
6550;BMP280;15142;48.888;9.134;2023-02-11T06:28:51;99922.88;;;0.03
6550;BMP280;15142;48.888;9.134;2023-02-11T06:31:18;99913.75;;;0.02
6550;BMP280;15142;48.888;9.134;2023-02-11T06:33:44;99908.44;;;0.05
6550;BMP280;15142;48.888;9.134;2023-02-11T06:36:13;99914.38;;;0.04
6550;BMP280;15142;48.888;9.134;2023-02-11T06:38:39;99912.38;;;0.07
6550;BMP280;15142;48.888;9.134;2023-02-11T06:41:09;99914.59;;;0.10
6550;BMP280;15142;48.888;9.134;2023-02-11T06:43:36;99927.28;;;0.09
6550;BMP280;15142;48.888;9.134;2023-02-11T06:46:03;99932.28;;;0.09
6550;BMP280;15142;48.888;9.134;2023-02-11T06:48:30;99919.44;;;0.12
6550;BMP280;15142;48.888;9.134;2023-02-11T06:51:00;99928.69;;;0.11
6550;BMP280;15142;48.888;9.134;2023-02-11T06:53:27;99936.06;;;0.13
6550;BMP280;15142;48.888;9.134;2023-02-11T06:55:54;99933.25;;;0.16
6550;BMP280;15142;48.888;9.134;2023-02-11T06:58:22;99935.31;;;0.20
6550;BMP280;15142;48.888;9.134;2023-02-11T07:00:48;99931.56;;;0.24
6550;BMP280;15142;48.888;9.134;2023-02-11T07:03:16;99932.81;;;0.28
6550;BMP280;15142;48.888;9.134;2023-02-11T07:05:43;99926.34;;;0.33
6550;BMP280;15142;48.888;9.134;2023-02-11T07:08:09;99923.84;;;0.33
6550;BMP280;15142;48.888;9.134;2023-02-11T07:10:36;99927.94;;;0.34
6550;BMP280;15142;48.888;9.134;2023-02-11T07:13:02;99935.47;;;0.34
6550;BMP280;15142;48.888;9.134;2023-02-11T07:15:31;99936.38;;;0.33
6550;BMP280;15142;48.888;9.134;2023-02-11T07:17:57;99941.25;;;0.35
6550;BMP280;15142;48.888;9.134;2023-02-11T07:20:24;99932.19;;;0.34
6550;BMP280;15142;48.888;9.134;2023-02-11T07:22:51;99926.34;;;0.33
6550;BMP280;15142;48.888;9.134;2023-02-11T07:25:17;99932.00;;;0.35
6550;BMP280;15142;48.888;9.134;2023-02-11T07:27:44;99942.69;;;0.37
6550;BMP280;15142;48.888;9.134;2023-02-11T07:30:12;99948.97;;;0.41
6550;BMP280;15142;48.888;9.134;2023-02-11T07:32:40;99948.06;;;0.50
6550;BMP280;15142;48.888;9.134;2023-02-11T07:35:06;99943.19;;;0.57
6550;BMP280;15142;48.888;9.134;2023-02-11T07:37:33;99954.97;;;0.64
6550;BMP280;15142;48.888;9.134;2023-02-11T07:40:00;99952.13;;;0.67
6550;BMP280;15142;48.888;9.134;2023-02-11T07:42:26;99946.50;;;0.73
6550;BMP280;15142;48.888;9.134;2023-02-11T07:44:53;99952.16;;;0.83
6550;BMP280;15142;48.888;9.134;2023-02-11T07:47:19;99946.66;;;0.87
6550;BMP280;15142;48.888;9.134;2023-02-11T07:49:48;99937.56;;;0.94
6550;BMP280;15142;48.888;9.134;2023-02-11T07:52:14;99932.03;;;0.99
6550;BMP280;15142;48.888;9.134;2023-02-11T07:54:41;99933.94;;;1.05
6550;BMP280;15142;48.888;9.134;2023-02-11T07:57:07;99922.28;;;1.11
6550;BMP280;15142;48.888;9.134;2023-02-11T07:59:34;99922.25;;;1.19
6550;BMP280;15142;48.888;9.134;2023-02-11T08:02:01;99916.69;;;1.32
6550;BMP280;15142;48.888;9.134;2023-02-11T08:04:27;99913.09;;;1.42
6550;BMP280;15142;48.888;9.134;2023-02-11T08:06:55;99914.78;;;1.49
6550;BMP280;15142;48.888;9.134;2023-02-11T08:09:23;99917.06;;;1.67
6550;BMP280;15142;48.888;9.134;2023-02-11T08:11:49;99915.81;;;1.71
6550;BMP280;15142;48.888;9.134;2023-02-11T08:14:16;99918.31;;;1.71
6550;BMP280;15142;48.888;9.134;2023-02-11T08:16:42;99925.38;;;1.75
6550;BMP280;15142;48.888;9.134;2023-02-11T08:19:11;99935.22;;;1.84
6550;BMP280;15142;48.888;9.134;2023-02-11T08:21:39;99939.91;;;1.87
6550;BMP280;15142;48.888;9.134;2023-02-11T08:24:07;99944.91;;;1.95
6550;BMP280;15142;48.888;9.134;2023-02-11T08:26:34;99947.13;;;1.98
6550;BMP280;15142;48.888;9.134;2023-02-11T08:29:06;99945.69;;;2.04
6550;BMP280;15142;48.888;9.134;2023-02-11T08:31:34;99937.75;;;2.14
6550;BMP280;15142;48.888;9.134;2023-02-11T08:34:01;99943.13;;;2.34
6550;BMP280;15142;48.888;9.134;2023-02-11T08:36:32;99939.19;;;2.53
6550;BMP280;15142;48.888;9.134;2023-02-11T08:39:01;99940.28;;;2.73
6550;BMP280;15142;48.888;9.134;2023-02-11T08:41:31;99933.28;;;2.97
6550;BMP280;15142;48.888;9.134;2023-02-11T08:43:58;99928.91;;;3.13
6550;BMP280;15142;48.888;9.134;2023-02-11T08:46:25;99929.94;;;3.33
6550;BMP280;15142;48.888;9.134;2023-02-11T08:48:53;99928.69;;;3.58
6550;BMP280;15142;48.888;9.134;2023-02-11T08:51:22;99930.06;;;3.60
6550;BMP280;15142;48.888;9.134;2023-02-11T08:53:50;99934.25;;;3.88
6550;BMP280;15142;48.888;9.134;2023-02-11T08:56:18;99925.97;;;3.94
6550;BMP280;15142;48.888;9.134;2023-02-11T08:58:46;99928.56;;;3.80
6550;BMP280;15142;48.888;9.134;2023-02-11T09:01:19;99938.25;;;3.97
6550;BMP280;15142;48.888;9.134;2023-02-11T09:03:46;99946.22;;;4.15
6550;BMP280;15142;48.888;9.134;2023-02-11T09:06:14;99946.72;;;4.52
6550;BMP280;15142;48.888;9.134;2023-02-11T09:08:43;99954.94;;;4.81
6550;BMP280;15142;48.888;9.134;2023-02-11T09:11:10;99934.84;;;5.07
6550;BMP280;15142;48.888;9.134;2023-02-11T09:13:39;99941.78;;;4.98
6550;BMP280;15142;48.888;9.134;2023-02-11T09:16:10;99941.31;;;5.09
6550;BMP280;15142;48.888;9.134;2023-02-11T09:18:40;99929.69;;;5.27
6550;BMP280;15142;48.888;9.134;2023-02-11T09:21:08;99936.47;;;5.20
6550;BMP280;15142;48.888;9.134;2023-02-11T09:23:35;99932.53;;;5.05
6550;BMP280;15142;48.888;9.134;2023-02-11T09:26:04;99924.06;;;4.92
6550;BMP280;15142;48.888;9.134;2023-02-11T09:28:31;99920.84;;;5.11
6550;BMP280;15142;48.888;9.134;2023-02-11T09:30:58;99926.13;;;5.15
6550;BMP280;15142;48.888;9.134;2023-02-11T09:33:26;99923.03;;;5.20
6550;BMP280;15142;48.888;9.134;2023-02-11T09:35:52;99922.38;;;5.45
6550;BMP280;15142;48.888;9.134;2023-02-11T09:38:19;99929.44;;;5.56
6550;BMP280;15142;48.888;9.134;2023-02-11T09:40:45;99933.56;;;5.76
6550;BMP280;15142;48.888;9.134;2023-02-11T09:43:16;99932.63;;;5.96
6550;BMP280;15142;48.888;9.134;2023-02-11T09:45:45;99938.84;;;6.00
6550;BMP280;15142;48.888;9.134;2023-02-11T09:48:14;99937.56;;;6.11
6550;BMP280;15142;48.888;9.134;2023-02-11T09:50:45;99933.44;;;5.97
6550;BMP280;15142;48.888;9.134;2023-02-11T09:53:17;99932.56;;;5.64
6550;BMP280;15142;48.888;9.134;2023-02-11T09:55:48;99938.78;;;5.62
6550;BMP280;15142;48.888;9.134;2023-02-11T09:58:24;99937.94;;;5.48
6550;BMP280;15142;48.888;9.134;2023-02-11T10:00:57;99935.47;;;5.55
6550;BMP280;15142;48.888;9.134;2023-02-11T10:03:40;99953.22;;;5.74
6550;BMP280;15142;48.888;9.134;2023-02-11T10:06:23;99955.88;;;6.19
6550;BMP280;15142;48.888;9.134;2023-02-11T10:09:00;99959.97;;;6.45
6550;BMP280;15142;48.888;9.134;2023-02-11T10:11:35;99947.09;;;6.66
6550;BMP280;15142;48.888;9.134;2023-02-11T10:14:17;99949.78;;;6.77
6550;BMP280;15142;48.888;9.134;2023-02-11T10:16:56;99949.97;;;6.89
6550;BMP280;15142;48.888;9.134;2023-02-11T10:19:40;99954.50;;;6.80
6550;BMP280;15142;48.888;9.134;2023-02-11T10:22:13;99954.91;;;6.71
6550;BMP280;15142;48.888;9.134;2023-02-11T10:24:49;99951.38;;;6.53
6550;BMP280;15142;48.888;9.134;2023-02-11T10:27:19;99952.91;;;6.79
6550;BMP280;15142;48.888;9.134;2023-02-11T10:29:48;99954.50;;;6.74
6550;BMP280;15142;48.888;9.134;2023-02-11T10:32:26;99954.31;;;6.75
6550;BMP280;15142;48.888;9.134;2023-02-11T10:34:55;99959.91;;;7.03
6550;BMP280;15142;48.888;9.134;2023-02-11T10:37:25;99948.97;;;7.03
6550;BMP280;15142;48.888;9.134;2023-02-11T10:39:51;99950.72;;;7.02
6550;BMP280;15142;48.888;9.134;2023-02-11T10:42:18;99946.34;;;7.28
6550;BMP280;15142;48.888;9.134;2023-02-11T10:44:56;99946.88;;;7.43
6550;BMP280;15142;48.888;9.134;2023-02-11T10:47:25;99939.28;;;7.73
6550;BMP280;15142;48.888;9.134;2023-02-11T10:49:53;99936.28;;;8.55
6550;BMP280;15142;48.888;9.134;2023-02-11T10:52:21;99927.69;;;9.21
6550;BMP280;15142;48.888;9.134;2023-02-11T10:55:02;99922.97;;;9.64
6550;BMP280;15142;48.888;9.134;2023-02-11T10:57:33;99911.53;;;9.56
6550;BMP280;15142;48.888;9.134;2023-02-11T11:00:04;99899.22;;;8.94
6550;BMP280;15142;48.888;9.134;2023-02-11T11:02:33;99901.34;;;9.15
6550;BMP280;15142;48.888;9.134;2023-02-11T11:05:05;99901.69;;;9.59
6550;BMP280;15142;48.888;9.134;2023-02-11T11:07:32;99880.84;;;8.75
6550;BMP280;15142;48.888;9.134;2023-02-11T11:10:02;99902.97;;;9.79
6550;BMP280;15142;48.888;9.134;2023-02-11T11:12:35;99904.81;;;10.63
6550;BMP280;15142;48.888;9.134;2023-02-11T11:15:16;99892.00;;;10.13
6550;BMP280;15142;48.888;9.134;2023-02-11T11:17:44;99897.63;;;9.69
6550;BMP280;15142;48.888;9.134;2023-02-11T11:20:26;99896.28;;;9.78
6550;BMP280;15142;48.888;9.134;2023-02-11T11:23:08;99903.44;;;10.72
6550;BMP280;15142;48.888;9.134;2023-02-11T11:25:38;99896.75;;;11.53
6550;BMP280;15142;48.888;9.134;2023-02-11T11:28:19;99898.28;;;10.44
6550;BMP280;15142;48.888;9.134;2023-02-11T11:30:47;99895.78;;;10.72
6550;BMP280;15142;48.888;9.134;2023-02-11T11:33:18;99881.25;;;9.48
6550;BMP280;15142;48.888;9.134;2023-02-11T11:35:56;99883.75;;;10.83
6550;BMP280;15142;48.888;9.134;2023-02-11T11:38:23;99885.50;;;10.67
6550;BMP280;15142;48.888;9.134;2023-02-11T11:41:19;99886.09;;;10.85
6550;BMP280;15142;48.888;9.134;2023-02-11T11:43:59;99887.63;;;10.86
6550;BMP280;15142;48.888;9.134;2023-02-11T11:46:29;99875.31;;;11.54
6550;BMP280;15142;48.888;9.134;2023-02-11T11:49:04;99865.03;;;10.05
6550;BMP280;15142;48.888;9.134;2023-02-11T11:51:33;99866.50;;;10.63
6550;BMP280;15142;48.888;9.134;2023-02-11T11:54:03;99855.03;;;9.81
6550;BMP280;15142;48.888;9.134;2023-02-11T11:56:34;99864.16;;;9.26
6550;BMP280;15142;48.888;9.134;2023-02-11T11:59:10;99869.25;;;8.79
6550;BMP280;15142;48.888;9.134;2023-02-11T12:01:45;99866.91;;;9.24
6550;BMP280;15142;48.888;9.134;2023-02-11T12:04:33;99869.88;;;10.29
6550;BMP280;15142;48.888;9.134;2023-02-11T12:07:10;99876.09;;;10.22
6550;BMP280;15142;48.888;9.134;2023-02-11T12:09:47;99867.47;;;10.12
6550;BMP280;15142;48.888;9.134;2023-02-11T12:12:26;99871.44;;;10.30
6550;BMP280;15142;48.888;9.134;2023-02-11T12:15:07;99862.09;;;10.86
6550;BMP280;15142;48.888;9.134;2023-02-11T12:17:49;99872.72;;;10.94
6550;BMP280;15142;48.888;9.134;2023-02-11T12:20:30;99866.63;;;10.56
6550;BMP280;15142;48.888;9.134;2023-02-11T12:23:20;99874.84;;;10.58
6550;BMP280;15142;48.888;9.134;2023-02-11T12:25:57;99876.84;;;10.95
6550;BMP280;15142;48.888;9.134;2023-02-11T12:28:35;99871.94;;;10.66
6550;BMP280;15142;48.888;9.134;2023-02-11T12:31:18;99870.75;;;10.46
6550;BMP280;15142;48.888;9.134;2023-02-11T12:36:50;99889.22;;;9.80
6550;BMP280;15142;48.888;9.134;2023-02-11T12:39:28;99882.56;;;10.02
6550;BMP280;15142;48.888;9.134;2023-02-11T12:42:13;99891.41;;;10.83
6550;BMP280;15142;48.888;9.134;2023-02-11T12:45:12;99881.19;;;9.77
6550;BMP280;15142;48.888;9.134;2023-02-11T12:47:54;99880.09;;;9.61
6550;BMP280;15142;48.888;9.134;2023-02-11T12:50:30;99879.53;;;10.50
6550;BMP280;15142;48.888;9.134;2023-02-11T12:53:16;99867.75;;;10.38
6550;BMP280;15142;48.888;9.134;2023-02-11T12:55:50;99869.69;;;10.19
6550;BMP280;15142;48.888;9.134;2023-02-11T12:58:20;99870.47;;;10.70
6550;BMP280;15142;48.888;9.134;2023-02-11T13:00:53;99874.22;;;10.90
6550;BMP280;15142;48.888;9.134;2023-02-11T13:03:23;99864.22;;;10.77
6550;BMP280;15142;48.888;9.134;2023-02-11T13:05:53;99852.09;;;10.57
6550;BMP280;15142;48.888;9.134;2023-02-11T13:08:25;99850.97;;;11.08
6550;BMP280;15142;48.888;9.134;2023-02-11T13:10:56;99846.78;;;10.47
6550;BMP280;15142;48.888;9.134;2023-02-11T13:13:28;99844.88;;;11.09
6550;BMP280;15142;48.888;9.134;2023-02-11T13:16:01;99840.16;;;11.17
6550;BMP280;15142;48.888;9.134;2023-02-11T13:18:47;99843.06;;;10.93
6550;BMP280;15142;48.888;9.134;2023-02-11T13:21:29;99848.75;;;11.11
6550;BMP280;15142;48.888;9.134;2023-02-11T13:24:06;99841.41;;;11.31
6550;BMP280;15142;48.888;9.134;2023-02-11T13:26:39;99841.22;;;11.05
6550;BMP280;15142;48.888;9.134;2023-02-11T13:29:17;99848.50;;;11.13
6550;BMP280;15142;48.888;9.134;2023-02-11T13:31:53;99829.88;;;10.85
6550;BMP280;15142;48.888;9.134;2023-02-11T13:34:24;99834.91;;;11.24
6550;BMP280;15142;48.888;9.134;2023-02-11T13:36:55;99828.75;;;10.65
6550;BMP280;15142;48.888;9.134;2023-02-11T13:39:22;99840.88;;;10.85
6550;BMP280;15142;48.888;9.134;2023-02-11T13:41:49;99827.66;;;10.88
6550;BMP280;15142;48.888;9.134;2023-02-11T13:44:24;99826.19;;;10.65
6550;BMP280;15142;48.888;9.134;2023-02-11T13:46:59;99828.56;;;10.55
6550;BMP280;15142;48.888;9.134;2023-02-11T13:49:30;99827.81;;;10.32
6550;BMP280;15142;48.888;9.134;2023-02-11T13:51:58;99828.22;;;9.67
6550;BMP280;15142;48.888;9.134;2023-02-11T13:54:32;99834.84;;;9.46
6550;BMP280;15142;48.888;9.134;2023-02-11T13:57:21;99825.44;;;9.46
6550;BMP280;15142;48.888;9.134;2023-02-11T13:59:49;99829.19;;;9.44
6550;BMP280;15142;48.888;9.134;2023-02-11T14:02:23;99822.50;;;9.20
6550;BMP280;15142;48.888;9.134;2023-02-11T14:05:28;99817.41;;;9.43
6550;BMP280;15142;48.888;9.134;2023-02-11T14:08:21;99821.09;;;9.47
6550;BMP280;15142;48.888;9.134;2023-02-11T14:11:09;99819.38;;;9.29
6550;BMP280;15142;48.888;9.134;2023-02-11T14:14:02;99813.19;;;8.96
6550;BMP280;15142;48.888;9.134;2023-02-11T14:16:29;99816.75;;;8.95
6550;BMP280;15142;48.888;9.134;2023-02-11T14:18:59;99810.91;;;8.77
6550;BMP280;15142;48.888;9.134;2023-02-11T14:21:33;99810.75;;;8.90
6550;BMP280;15142;48.888;9.134;2023-02-11T14:27:03;99810.78;;;8.72
6550;BMP280;15142;48.888;9.134;2023-02-11T14:29:37;99815.94;;;8.95
6550;BMP280;15142;48.888;9.134;2023-02-11T14:32:09;99807.69;;;8.99
6550;BMP280;15142;48.888;9.134;2023-02-11T14:34:50;99827.47;;;9.15
6550;BMP280;15142;48.888;9.134;2023-02-11T14:37:30;99827.31;;;9.73
6550;BMP280;15142;48.888;9.134;2023-02-11T14:40:17;99826.63;;;9.44
6550;BMP280;15142;48.888;9.134;2023-02-11T14:42:47;99825.09;;;9.65
6550;BMP280;15142;48.888;9.134;2023-02-11T14:45:18;99828.31;;;9.21
6550;BMP280;15142;48.888;9.134;2023-02-11T14:47:48;99826.66;;;8.86
6550;BMP280;15142;48.888;9.134;2023-02-11T14:50:22;99833.56;;;8.96
6550;BMP280;15142;48.888;9.134;2023-02-11T14:52:50;99829.66;;;8.83
6550;BMP280;15142;48.888;9.134;2023-02-11T14:55:29;99833.59;;;8.79
6550;BMP280;15142;48.888;9.134;2023-02-11T14:58:11;99835.88;;;8.69
6550;BMP280;15142;48.888;9.134;2023-02-11T15:00:51;99831.50;;;8.76